sensor_id;sensor_type;location;lat;lon;timestamp;pressure;altitude;pressure_sealevel;temperature
70415;BMP280;57837;52.064;113.478;2023-09-30T00:01:39;94120.31;;;6.11
70415;BMP280;57837;52.064;113.478;2023-09-30T00:04:42;94119.25;;;6.78
70415;BMP280;57837;52.064;113.478;2023-09-30T00:07:46;94128.81;;;7.37
70415;BMP280;57837;52.064;113.478;2023-09-30T00:10:50;94127.00;;;7.70
70415;BMP280;57837;52.064;113.478;2023-09-30T00:13:56;94125.34;;;7.80
70415;BMP280;57837;52.064;113.478;2023-09-30T00:17:00;94123.13;;;8.14
70415;BMP280;57837;52.064;113.478;2023-09-30T00:20:03;94135.25;;;8.46
70415;BMP280;57837;52.064;113.478;2023-09-30T00:23:07;94121.63;;;8.74
70415;BMP280;57837;52.064;113.478;2023-09-30T00:26:11;94116.34;;;9.07
70415;BMP280;57837;52.064;113.478;2023-09-30T00:29:17;94112.19;;;9.51
70415;BMP280;57837;52.064;113.478;2023-09-30T00:32:21;94115.16;;;9.87
70415;BMP280;57837;52.064;113.478;2023-09-30T00:35:24;94104.63;;;10.51
70415;BMP280;57837;52.064;113.478;2023-09-30T00:38:27;94108.22;;;10.88
70415;BMP280;57837;52.064;113.478;2023-09-30T00:41:30;94109.06;;;11.15
70415;BMP280;57837;52.064;113.478;2023-09-30T00:44:35;94100.38;;;11.40
70415;BMP280;57837;52.064;113.478;2023-09-30T00:47:39;94103.34;;;11.70
70415;BMP280;57837;52.064;113.478;2023-09-30T00:50:44;94097.06;;;11.89
70415;BMP280;57837;52.064;113.478;2023-09-30T00:53:48;94106.28;;;11.90
70415;BMP280;57837;52.064;113.478;2023-09-30T00:56:54;94110.16;;;12.04
70415;BMP280;57837;52.064;113.478;2023-09-30T01:00:03;94110.47;;;12.06
70415;BMP280;57837;52.064;113.478;2023-09-30T01:03:06;94103.56;;;12.39
70415;BMP280;57837;52.064;113.478;2023-09-30T01:06:10;94098.19;;;12.70
70415;BMP280;57837;52.064;113.478;2023-09-30T01:09:14;94102.91;;;12.90
70415;BMP280;57837;52.064;113.478;2023-09-30T01:12:17;94104.91;;;12.95
70415;BMP280;57837;52.064;113.478;2023-09-30T01:15:21;94098.88;;;12.89
70415;BMP280;57837;52.064;113.478;2023-09-30T01:18:24;94099.06;;;13.18
70415;BMP280;57837;52.064;113.478;2023-09-30T01:24:42;94104.16;;;13.93
70415;BMP280;57837;52.064;113.478;2023-09-30T01:27:46;94093.41;;;13.52
70415;BMP280;57837;52.064;113.478;2023-09-30T01:30:51;94095.28;;;13.61
70415;BMP280;57837;52.064;113.478;2023-09-30T01:33:55;94089.59;;;14.10
70415;BMP280;57837;52.064;113.478;2023-09-30T01:37:00;94093.31;;;14.77
70415;BMP280;57837;52.064;113.478;2023-09-30T01:40:04;94095.03;;;14.65
70415;BMP280;57837;52.064;113.478;2023-09-30T01:43:12;94089.88;;;14.56
70415;BMP280;57837;52.064;113.478;2023-09-30T01:46:16;94086.41;;;14.44
70415;BMP280;57837;52.064;113.478;2023-09-30T01:49:19;94086.28;;;14.24
70415;BMP280;57837;52.064;113.478;2023-09-30T01:52:22;94079.94;;;14.40
70415;BMP280;57837;52.064;113.478;2023-09-30T01:55:26;94089.53;;;14.63
70415;BMP280;57837;52.064;113.478;2023-09-30T01:58:30;94079.94;;;14.69
70415;BMP280;57837;52.064;113.478;2023-09-30T02:01:34;94080.56;;;14.79
70415;BMP280;57837;52.064;113.478;2023-09-30T02:04:38;94063.56;;;14.69
70415;BMP280;57837;52.064;113.478;2023-09-30T02:07:41;94073.00;;;14.81
70415;BMP280;57837;52.064;113.478;2023-09-30T02:10:45;94060.97;;;14.83
70415;BMP280;57837;52.064;113.478;2023-09-30T02:13:48;94065.72;;;14.85
70415;BMP280;57837;52.064;113.478;2023-09-30T02:16:52;94051.66;;;15.32
70415;BMP280;57837;52.064;113.478;2023-09-30T02:19:55;94045.31;;;15.59
70415;BMP280;57837;52.064;113.478;2023-09-30T02:22:59;94044.50;;;15.93
70415;BMP280;57837;52.064;113.478;2023-09-30T02:26:02;94042.19;;;16.21
70415;BMP280;57837;52.064;113.478;2023-09-30T02:29:06;94039.41;;;16.30
70415;BMP280;57837;52.064;113.478;2023-09-30T02:32:12;94043.00;;;16.32
70415;BMP280;57837;52.064;113.478;2023-09-30T02:35:17;94038.53;;;16.39
70415;BMP280;57837;52.064;113.478;2023-09-30T02:38:22;94031.72;;;16.84
70415;BMP280;57837;52.064;113.478;2023-09-30T02:41:25;94026.63;;;17.11
70415;BMP280;57837;52.064;113.478;2023-09-30T02:44:28;94027.28;;;17.54
70415;BMP280;57837;52.064;113.478;2023-09-30T02:47:32;94026.59;;;17.76
70415;BMP280;57837;52.064;113.478;2023-09-30T02:50:36;94019.63;;;17.51
70415;BMP280;57837;52.064;113.478;2023-09-30T02:53:39;94015.56;;;17.39
70415;BMP280;57837;52.064;113.478;2023-09-30T02:56:43;94013.34;;;17.26
70415;BMP280;57837;52.064;113.478;2023-09-30T03:00:08;94018.03;;;17.05
70415;BMP280;57837;52.064;113.478;2023-09-30T03:03:24;94003.00;;;16.52
70415;BMP280;57837;52.064;113.478;2023-09-30T03:06:29;93996.63;;;16.27
70415;BMP280;57837;52.064;113.478;2023-09-30T03:09:32;93990.97;;;16.34
70415;BMP280;57837;52.064;113.478;2023-09-30T03:12:36;93985.28;;;16.73
70415;BMP280;57837;52.064;113.478;2023-09-30T03:15:39;93982.94;;;16.75
70415;BMP280;57837;52.064;113.478;2023-09-30T03:18:43;93980.28;;;16.69
70415;BMP280;57837;52.064;113.478;2023-09-30T03:21:47;93976.81;;;16.47
70415;BMP280;57837;52.064;113.478;2023-09-30T03:24:52;93973.66;;;16.37
70415;BMP280;57837;52.064;113.478;2023-09-30T03:27:57;93970.28;;;16.31
70415;BMP280;57837;52.064;113.478;2023-09-30T03:31:01;93968.09;;;16.24
70415;BMP280;57837;52.064;113.478;2023-09-30T03:34:05;93961.31;;;16.38
70415;BMP280;57837;52.064;113.478;2023-09-30T03:37:08;93957.66;;;16.61
70415;BMP280;57837;52.064;113.478;2023-09-30T03:40:14;93956.41;;;16.51
70415;BMP280;57837;52.064;113.478;2023-09-30T03:43:23;93947.56;;;16.43
70415;BMP280;57837;52.064;113.478;2023-09-30T03:46:27;93944.53;;;16.55
70415;BMP280;57837;52.064;113.478;2023-09-30T03:49:30;93936.38;;;16.37
70415;BMP280;57837;52.064;113.478;2023-09-30T03:52:34;93937.13;;;16.48
70415;BMP280;57837;52.064;113.478;2023-09-30T03:55:38;93930.06;;;16.65
70415;BMP280;57837;52.064;113.478;2023-09-30T03:58:42;93934.22;;;16.83
70415;BMP280;57837;52.064;113.478;2023-09-30T04:01:46;93926.03;;;16.59
70415;BMP280;57837;52.064;113.478;2023-09-30T04:04:50;93917.97;;;16.62
70415;BMP280;57837;52.064;113.478;2023-09-30T04:07:56;93920.47;;;16.88
70415;BMP280;57837;52.064;113.478;2023-09-30T04:11:01;93914.50;;;16.82
70415;BMP280;57837;52.064;113.478;2023-09-30T04:14:07;93911.88;;;16.82
70415;BMP280;57837;52.064;113.478;2023-09-30T04:17:11;93901.00;;;16.95
70415;BMP280;57837;52.064;113.478;2023-09-30T04:20:14;93902.69;;;17.03
70415;BMP280;57837;52.064;113.478;2023-09-30T04:23:26;93897.91;;;17.02
70415;BMP280;57837;52.064;113.478;2023-09-30T04:26:30;93889.56;;;16.98
70415;BMP280;57837;52.064;113.478;2023-09-30T04:29:34;93885.09;;;17.04
70415;BMP280;57837;52.064;113.478;2023-09-30T04:32:38;93875.38;;;17.10
70415;BMP280;57837;52.064;113.478;2023-09-30T04:35:41;93884.41;;;17.09
70415;BMP280;57837;52.064;113.478;2023-09-30T04:38:45;93871.56;;;17.16
70415;BMP280;57837;52.064;113.478;2023-09-30T04:41:48;93872.25;;;17.00
70415;BMP280;57837;52.064;113.478;2023-09-30T04:44:53;93870.34;;;17.06
70415;BMP280;57837;52.064;113.478;2023-09-30T04:47:59;93863.47;;;17.20
70415;BMP280;57837;52.064;113.478;2023-09-30T04:51:08;93862.78;;;17.31
70415;BMP280;57837;52.064;113.478;2023-09-30T04:54:12;93855.16;;;17.33
70415;BMP280;57837;52.064;113.478;2023-09-30T04:57:15;93853.50;;;17.30
70415;BMP280;57837;52.064;113.478;2023-09-30T05:00:20;93846.81;;;17.01
70415;BMP280;57837;52.064;113.478;2023-09-30T05:03:29;93840.13;;;17.00
70415;BMP280;57837;52.064;113.478;2023-09-30T05:06:33;93829.44;;;17.09
70415;BMP280;57837;52.064;113.478;2023-09-30T05:09:36;93834.00;;;17.25
70415;BMP280;57837;52.064;113.478;2023-09-30T05:12:42;93822.56;;;17.28
70415;BMP280;57837;52.064;113.478;2023-09-30T05:15:50;93825.19;;;17.28
70415;BMP280;57837;52.064;113.478;2023-09-30T05:18:57;93824.22;;;17.31
70415;BMP280;57837;52.064;113.478;2023-09-30T05:22:01;93814.03;;;17.39
70415;BMP280;57837;52.064;113.478;2023-09-30T05:25:05;93813.78;;;17.53
70415;BMP280;57837;52.064;113.478;2023-09-30T05:28:09;93807.34;;;17.49
70415;BMP280;57837;52.064;113.478;2023-09-30T05:31:14;93803.28;;;17.48
70415;BMP280;57837;52.064;113.478;2023-09-30T05:34:18;93802.09;;;17.49
70415;BMP280;57837;52.064;113.478;2023-09-30T05:37:22;93805.69;;;17.68
70415;BMP280;57837;52.064;113.478;2023-09-30T05:40:25;93802.53;;;17.75
70415;BMP280;57837;52.064;113.478;2023-09-30T05:43:29;93801.41;;;17.65
70415;BMP280;57837;52.064;113.478;2023-09-30T05:46:33;93792.34;;;17.66
70415;BMP280;57837;52.064;113.478;2023-09-30T05:49:36;93796.84;;;17.65
70415;BMP280;57837;52.064;113.478;2023-09-30T05:52:44;93792.81;;;17.70
70415;BMP280;57837;52.064;113.478;2023-09-30T05:55:50;93784.00;;;17.73
70415;BMP280;57837;52.064;113.478;2023-09-30T05:58:53;93786.34;;;17.82
70415;BMP280;57837;52.064;113.478;2023-09-30T06:01:58;93781.13;;;17.82
70415;BMP280;57837;52.064;113.478;2023-09-30T06:05:02;93770.63;;;17.82
70415;BMP280;57837;52.064;113.478;2023-09-30T06:08:08;93767.56;;;17.84
70415;BMP280;57837;52.064;113.478;2023-09-30T06:11:17;93755.63;;;17.88
70415;BMP280;57837;52.064;113.478;2023-09-30T06:14:21;93756.81;;;17.93
70415;BMP280;57837;52.064;113.478;2023-09-30T06:17:25;93751.84;;;17.89
70415;BMP280;57837;52.064;113.478;2023-09-30T06:20:29;93752.78;;;17.86
70415;BMP280;57837;52.064;113.478;2023-09-30T06:23:33;93748.72;;;17.85
70415;BMP280;57837;52.064;113.478;2023-09-30T06:26:36;93755.88;;;17.85
70415;BMP280;57837;52.064;113.478;2023-09-30T06:29:39;93757.81;;;17.73
70415;BMP280;57837;52.064;113.478;2023-09-30T06:32:45;93759.97;;;17.52
70415;BMP280;57837;52.064;113.478;2023-09-30T06:35:49;93767.16;;;17.30
70415;BMP280;57837;52.064;113.478;2023-09-30T06:38:56;93760.00;;;17.13
70415;BMP280;57837;52.064;113.478;2023-09-30T06:41:59;93769.53;;;17.11
70415;BMP280;57837;52.064;113.478;2023-09-30T06:45:03;93767.84;;;17.24
70415;BMP280;57837;52.064;113.478;2023-09-30T06:48:09;93761.44;;;17.42
70415;BMP280;57837;52.064;113.478;2023-09-30T06:51:18;93757.16;;;17.45
70415;BMP280;57837;52.064;113.478;2023-09-30T06:54:22;93748.09;;;17.23
70415;BMP280;57837;52.064;113.478;2023-09-30T06:57:25;93751.69;;;17.20
70415;BMP280;57837;52.064;113.478;2023-09-30T07:00:29;93754.03;;;17.41
70415;BMP280;57837;52.064;113.478;2023-09-30T07:03:32;93754.53;;;17.39
70415;BMP280;57837;52.064;113.478;2023-09-30T07:06:35;93749.06;;;17.37
70415;BMP280;57837;52.064;113.478;2023-09-30T07:09:39;93748.34;;;17.31
70415;BMP280;57837;52.064;113.478;2023-09-30T07:12:43;93752.84;;;17.36
70415;BMP280;57837;52.064;113.478;2023-09-30T07:15:47;93753.81;;;17.27
70415;BMP280;57837;52.064;113.478;2023-09-30T07:18:50;93752.88;;;17.25
70415;BMP280;57837;52.064;113.478;2023-09-30T07:21:54;93740.50;;;17.25
70415;BMP280;57837;52.064;113.478;2023-09-30T07:25:07;93747.84;;;17.27
70415;BMP280;57837;52.064;113.478;2023-09-30T07:28:12;93753.09;;;17.21
70415;BMP280;57837;52.064;113.478;2023-09-30T07:31:16;93746.19;;;17.07
70415;BMP280;57837;52.064;113.478;2023-09-30T07:34:19;93751.66;;;16.82
70415;BMP280;57837;52.064;113.478;2023-09-30T07:37:23;93747.34;;;16.62
70415;BMP280;57837;52.064;113.478;2023-09-30T07:40:27;93756.09;;;16.53
70415;BMP280;57837;52.064;113.478;2023-09-30T07:43:31;93745.63;;;16.48
70415;BMP280;57837;52.064;113.478;2023-09-30T07:46:35;93744.47;;;16.49
70415;BMP280;57837;52.064;113.478;2023-09-30T07:49:39;93741.19;;;16.65
70415;BMP280;57837;52.064;113.478;2023-09-30T07:52:43;93741.88;;;16.71
70415;BMP280;57837;52.064;113.478;2023-09-30T07:55:46;93735.72;;;16.79
70415;BMP280;57837;52.064;113.478;2023-09-30T07:58:50;93734.03;;;16.71
70415;BMP280;57837;52.064;113.478;2023-09-30T08:01:54;93745.19;;;16.55
70415;BMP280;57837;52.064;113.478;2023-09-30T08:04:59;93743.72;;;16.37
70415;BMP280;57837;52.064;113.478;2023-09-30T08:08:04;93743.44;;;16.29
70415;BMP280;57837;52.064;113.478;2023-09-30T08:11:09;93742.25;;;16.30
70415;BMP280;57837;52.064;113.478;2023-09-30T08:14:13;93743.00;;;16.37
70415;BMP280;57837;52.064;113.478;2023-09-30T08:17:18;93750.34;;;16.38
70415;BMP280;57837;52.064;113.478;2023-09-30T08:20:22;93746.78;;;16.36
70415;BMP280;57837;52.064;113.478;2023-09-30T08:23:25;93746.31;;;16.31
70415;BMP280;57837;52.064;113.478;2023-09-30T08:26:28;93749.09;;;16.17
70415;BMP280;57837;52.064;113.478;2023-09-30T08:29:35;93753.56;;;16.05
70415;BMP280;57837;52.064;113.478;2023-09-30T08:32:41;93750.13;;;15.88
70415;BMP280;57837;52.064;113.478;2023-09-30T08:35:44;93740.84;;;15.81
70415;BMP280;57837;52.064;113.478;2023-09-30T08:38:47;93748.22;;;15.83
70415;BMP280;57837;52.064;113.478;2023-09-30T08:41:52;93738.97;;;15.82
70415;BMP280;57837;52.064;113.478;2023-09-30T08:44:58;93734.63;;;15.73
70415;BMP280;57837;52.064;113.478;2023-09-30T08:48:20;93737.25;;;15.73
70415;BMP280;57837;52.064;113.478;2023-09-30T08:51:26;93735.13;;;15.77
70415;BMP280;57837;52.064;113.478;2023-09-30T08:54:32;93735.13;;;15.77
70415;BMP280;57837;52.064;113.478;2023-09-30T08:57:42;93726.34;;;15.75
70415;BMP280;57837;52.064;113.478;2023-09-30T09:00:47;93723.41;;;15.62
70415;BMP280;57837;52.064;113.478;2023-09-30T09:03:51;93725.50;;;15.58
70415;BMP280;57837;52.064;113.478;2023-09-30T09:06:56;93721.25;;;15.60
70415;BMP280;57837;52.064;113.478;2023-09-30T09:10:07;93721.53;;;15.68
70415;BMP280;57837;52.064;113.478;2023-09-30T09:13:12;93716.13;;;15.77
70415;BMP280;57837;52.064;113.478;2023-09-30T09:16:16;93713.06;;;16.32
70415;BMP280;57837;52.064;113.478;2023-09-30T09:19:24;93709.75;;;16.37
70415;BMP280;57837;52.064;113.478;2023-09-30T09:22:43;93708.06;;;16.34
70415;BMP280;57837;52.064;113.478;2023-09-30T09:25:49;93707.38;;;16.33
70415;BMP280;57837;52.064;113.478;2023-09-30T09:29:05;93699.53;;;16.33
70415;BMP280;57837;52.064;113.478;2023-09-30T09:32:13;93696.19;;;16.33
70415;BMP280;57837;52.064;113.478;2023-09-30T09:35:20;93703.06;;;16.30
70415;BMP280;57837;52.064;113.478;2023-09-30T09:38:24;93697.63;;;16.28
70415;BMP280;57837;52.064;113.478;2023-09-30T09:41:27;93693.06;;;16.23
70415;BMP280;57837;52.064;113.478;2023-09-30T09:44:33;93698.97;;;16.18
70415;BMP280;57837;52.064;113.478;2023-09-30T09:47:39;93690.16;;;16.05
70415;BMP280;57837;52.064;113.478;2023-09-30T09:50:43;93701.03;;;15.98
70415;BMP280;57837;52.064;113.478;2023-09-30T09:53:51;93693.16;;;15.86
70415;BMP280;57837;52.064;113.478;2023-09-30T09:56:56;93696.69;;;15.78
70415;BMP280;57837;52.064;113.478;2023-09-30T10:00:04;93692.34;;;15.69
70415;BMP280;57837;52.064;113.478;2023-09-30T10:03:17;93698.03;;;15.62
70415;BMP280;57837;52.064;113.478;2023-09-30T10:06:21;93696.56;;;15.56
70415;BMP280;57837;52.064;113.478;2023-09-30T10:09:26;93694.66;;;15.51
70415;BMP280;57837;52.064;113.478;2023-09-30T10:12:40;93690.34;;;15.48
70415;BMP280;57837;52.064;113.478;2023-09-30T10:15:45;93686.97;;;15.36
70415;BMP280;57837;52.064;113.478;2023-09-30T10:25:36;93692.22;;;15.10
70415;BMP280;57837;52.064;113.478;2023-09-30T10:28:43;93687.41;;;15.03
70415;BMP280;57837;52.064;113.478;2023-09-30T10:31:53;93692.50;;;14.86
70415;BMP280;57837;52.064;113.478;2023-09-30T10:34:57;93695.41;;;14.68
70415;BMP280;57837;52.064;113.478;2023-09-30T10:44:49;93689.44;;;14.16
70415;BMP280;57837;52.064;113.478;2023-09-30T10:47:54;93698.72;;;14.02
70415;BMP280;57837;52.064;113.478;2023-09-30T10:50:59;93697.28;;;13.81
70415;BMP280;57837;52.064;113.478;2023-09-30T10:54:07;93694.56;;;13.55
70415;BMP280;57837;52.064;113.478;2023-09-30T10:57:11;93700.16;;;13.34
70415;BMP280;57837;52.064;113.478;2023-09-30T11:00:16;93701.00;;;13.25
70415;BMP280;57837;52.064;113.478;2023-09-30T11:03:23;93702.66;;;13.13
70415;BMP280;57837;52.064;113.478;2023-09-30T11:06:27;93698.22;;;12.99
70415;BMP280;57837;52.064;113.478;2023-09-30T11:09:33;93700.16;;;12.90
70415;BMP280;57837;52.064;113.478;2023-09-30T11:12:37;93707.59;;;12.82
70415;BMP280;57837;52.064;113.478;2023-09-30T11:15:41;93705.78;;;12.73
70415;BMP280;57837;52.064;113.478;2023-09-30T11:18:45;93713.81;;;12.61
70415;BMP280;57837;52.064;113.478;2023-09-30T11:21:51;93710.22;;;12.44
70415;BMP280;57837;52.064;113.478;2023-09-30T11:24:55;93716.69;;;12.24
70415;BMP280;57837;52.064;113.478;2023-09-30T11:28:16;93714.13;;;12.15
70415;BMP280;57837;52.064;113.478;2023-09-30T11:31:19;93716.78;;;12.06
70415;BMP280;57837;52.064;113.478;2023-09-30T11:34:33;93711.22;;;11.98
70415;BMP280;57837;52.064;113.478;2023-09-30T11:37:41;93719.00;;;11.98
70415;BMP280;57837;52.064;113.478;2023-09-30T11:41:01;93713.97;;;11.95
70415;BMP280;57837;52.064;113.478;2023-09-30T11:44:11;93723.78;;;11.91
70415;BMP280;57837;52.064;113.478;2023-09-30T11:47:28;93719.19;;;11.86
70415;BMP280;57837;52.064;113.478;2023-09-30T11:50:49;93718.50;;;11.76
70415;BMP280;57837;52.064;113.478;2023-09-30T11:53:54;93731.88;;;11.75
70415;BMP280;57837;52.064;113.478;2023-09-30T11:57:00;93734.69;;;11.71
70415;BMP280;57837;52.064;113.478;2023-09-30T12:00:05;93727.75;;;11.68
70415;BMP280;57837;52.064;113.478;2023-09-30T12:03:16;93733.53;;;11.63
70415;BMP280;57837;52.064;113.478;2023-09-30T12:06:20;93734.69;;;11.62
70415;BMP280;57837;52.064;113.478;2023-09-30T12:09:24;93743.63;;;11.61
70415;BMP280;57837;52.064;113.478;2023-09-30T12:12:29;93739.47;;;11.54
70415;BMP280;57837;52.064;113.478;2023-09-30T12:15:33;93742.22;;;11.51
70415;BMP280;57837;52.064;113.478;2023-09-30T12:18:36;93737.19;;;11.47
70415;BMP280;57837;52.064;113.478;2023-09-30T12:21:42;93744.41;;;11.43
70415;BMP280;57837;52.064;113.478;2023-09-30T12:24:46;93742.84;;;11.37
70415;BMP280;57837;52.064;113.478;2023-09-30T12:27:51;93742.41;;;11.29
70415;BMP280;57837;52.064;113.478;2023-09-30T12:31:01;93748.31;;;11.21
70415;BMP280;57837;52.064;113.478;2023-09-30T12:34:06;93743.47;;;11.13
70415;BMP280;57837;52.064;113.478;2023-09-30T12:37:10;93735.97;;;11.06
70415;BMP280;57837;52.064;113.478;2023-09-30T12:40:14;93736.41;;;11.05
70415;BMP280;57837;52.064;113.478;2023-09-30T12:43:20;93729.91;;;11.00
70415;BMP280;57837;52.064;113.478;2023-09-30T12:46:24;93732.66;;;10.97
70415;BMP280;57837;52.064;113.478;2023-09-30T12:49:29;93728.09;;;10.83
70415;BMP280;57837;52.064;113.478;2023-09-30T12:52:33;93726.34;;;10.61
70415;BMP280;57837;52.064;113.478;2023-09-30T12:55:36;93729.91;;;10.46
70415;BMP280;57837;52.064;113.478;2023-09-30T12:58:40;93740.41;;;10.42
70415;BMP280;57837;52.064;113.478;2023-09-30T13:01:44;93736.22;;;10.35
70415;BMP280;57837;52.064;113.478;2023-09-30T13:04:48;93736.19;;;10.26
70415;BMP280;57837;52.064;113.478;2023-09-30T13:07:52;93738.06;;;10.26
70415;BMP280;57837;52.064;113.478;2023-09-30T13:10:56;93731.16;;;10.23
70415;BMP280;57837;52.064;113.478;2023-09-30T13:13:59;93738.50;;;10.24
70415;BMP280;57837;52.064;113.478;2023-09-30T13:17:03;93738.22;;;10.22
70415;BMP280;57837;52.064;113.478;2023-09-30T13:20:11;93741.09;;;10.24
70415;BMP280;57837;52.064;113.478;2023-09-30T13:23:15;93740.91;;;10.19
70415;BMP280;57837;52.064;113.478;2023-09-30T13:26:21;93738.56;;;10.03
70415;BMP280;57837;52.064;113.478;2023-09-30T13:29:25;93734.81;;;9.94
70415;BMP280;57837;52.064;113.478;2023-09-30T13:32:28;93741.38;;;9.86
70415;BMP280;57837;52.064;113.478;2023-09-30T13:35:33;93738.78;;;9.77
70415;BMP280;57837;52.064;113.478;2023-09-30T13:38:37;93738.59;;;9.72
70415;BMP280;57837;52.064;113.478;2023-09-30T13:41:41;93733.13;;;9.70
70415;BMP280;57837;52.064;113.478;2023-09-30T13:44:45;93749.47;;;9.67
70415;BMP280;57837;52.064;113.478;2023-09-30T13:47:48;93737.69;;;9.66
70415;BMP280;57837;52.064;113.478;2023-09-30T13:50:51;93743.41;;;9.61
70415;BMP280;57837;52.064;113.478;2023-09-30T13:53:54;93738.88;;;9.43
70415;BMP280;57837;52.064;113.478;2023-09-30T13:56:58;93743.22;;;9.24
70415;BMP280;57837;52.064;113.478;2023-09-30T14:00:03;93742.00;;;9.16
70415;BMP280;57837;52.064;113.478;2023-09-30T14:03:09;93750.28;;;9.11
70415;BMP280;57837;52.064;113.478;2023-09-30T14:06:13;93755.16;;;9.09
70415;BMP280;57837;52.064;113.478;2023-09-30T14:09:17;93748.56;;;9.08
70415;BMP280;57837;52.064;113.478;2023-09-30T14:12:24;93753.41;;;9.06
70415;BMP280;57837;52.064;113.478;2023-09-30T14:15:28;93752.63;;;8.96
70415;BMP280;57837;52.064;113.478;2023-09-30T14:18:32;93753.78;;;8.95
70415;BMP280;57837;52.064;113.478;2023-09-30T14:21:37;93758.44;;;8.88
70415;BMP280;57837;52.064;113.478;2023-09-30T14:24:40;93761.53;;;8.83
70415;BMP280;57837;52.064;113.478;2023-09-30T14:27:43;93754.63;;;8.80
70415;BMP280;57837;52.064;113.478;2023-09-30T14:30:47;93753.41;;;8.71
70415;BMP280;57837;52.064;113.478;2023-09-30T14:33:50;93752.81;;;8.67
70415;BMP280;57837;52.064;113.478;2023-09-30T14:36:54;93745.19;;;8.64
70415;BMP280;57837;52.064;113.478;2023-09-30T14:39:58;93751.19;;;8.61
70415;BMP280;57837;52.064;113.478;2023-09-30T14:43:01;93752.81;;;8.55
70415;BMP280;57837;52.064;113.478;2023-09-30T14:46:09;93752.94;;;8.51
70415;BMP280;57837;52.064;113.478;2023-09-30T14:49:12;93745.81;;;8.55
70415;BMP280;57837;52.064;113.478;2023-09-30T14:52:16;93748.38;;;8.55
70415;BMP280;57837;52.064;113.478;2023-09-30T14:55:19;93743.97;;;8.43
70415;BMP280;57837;52.064;113.478;2023-09-30T14:58:23;93744.09;;;8.40
70415;BMP280;57837;52.064;113.478;2023-09-30T15:01:26;93748.31;;;8.33
70415;BMP280;57837;52.064;113.478;2023-09-30T15:04:31;93740.38;;;8.28
70415;BMP280;57837;52.064;113.478;2023-09-30T15:07:36;93748.22;;;8.24
70415;BMP280;57837;52.064;113.478;2023-09-30T15:10:42;93759.34;;;8.34
70415;BMP280;57837;52.064;113.478;2023-09-30T15:13:47;93754.50;;;8.36
70415;BMP280;57837;52.064;113.478;2023-09-30T15:16:50;93751.31;;;8.32
70415;BMP280;57837;52.064;113.478;2023-09-30T15:19:54;93748.22;;;8.24
70415;BMP280;57837;52.064;113.478;2023-09-30T15:22:58;93751.09;;;8.26
70415;BMP280;57837;52.064;113.478;2023-09-30T15:26:03;93739.03;;;8.23
70415;BMP280;57837;52.064;113.478;2023-09-30T15:29:06;93749.47;;;8.20
70415;BMP280;57837;52.064;113.478;2023-09-30T15:32:12;93751.59;;;8.21
70415;BMP280;57837;52.064;113.478;2023-09-30T15:35:16;93746.59;;;8.18
70415;BMP280;57837;52.064;113.478;2023-09-30T15:38:20;93753.94;;;8.19
70415;BMP280;57837;52.064;113.478;2023-09-30T15:41:23;93752.97;;;8.13
70415;BMP280;57837;52.064;113.478;2023-09-30T15:44:27;93754.63;;;8.07
70415;BMP280;57837;52.064;113.478;2023-09-30T15:47:30;93756.56;;;8.03
70415;BMP280;57837;52.064;113.478;2023-09-30T15:50:34;93761.72;;;8.03
70415;BMP280;57837;52.064;113.478;2023-09-30T15:53:38;93755.44;;;8.04
70415;BMP280;57837;52.064;113.478;2023-09-30T15:56:42;93750.69;;;8.03
70415;BMP280;57837;52.064;113.478;2023-09-30T15:59:57;93744.81;;;7.89
70415;BMP280;57837;52.064;113.478;2023-09-30T16:03:00;93746.03;;;7.72
70415;BMP280;57837;52.064;113.478;2023-09-30T16:06:05;93753.03;;;7.59
70415;BMP280;57837;52.064;113.478;2023-09-30T16:09:09;93751.38;;;7.52
70415;BMP280;57837;52.064;113.478;2023-09-30T16:12:13;93746.88;;;7.40
70415;BMP280;57837;52.064;113.478;2023-09-30T16:15:16;93745.34;;;7.30
70415;BMP280;57837;52.064;113.478;2023-09-30T16:18:20;93746.53;;;7.26
70415;BMP280;57837;52.064;113.478;2023-09-30T16:21:24;93750.63;;;7.23
70415;BMP280;57837;52.064;113.478;2023-09-30T16:24:31;93738.16;;;7.21
70415;BMP280;57837;52.064;113.478;2023-09-30T16:27:34;93743.09;;;7.16
70415;BMP280;57837;52.064;113.478;2023-09-30T16:30:37;93733.00;;;7.09
70415;BMP280;57837;52.064;113.478;2023-09-30T16:33:41;93742.06;;;7.13
70415;BMP280;57837;52.064;113.478;2023-09-30T16:36:45;93742.47;;;7.12
70415;BMP280;57837;52.064;113.478;2023-09-30T16:39:49;93742.56;;;7.08
70415;BMP280;57837;52.064;113.478;2023-09-30T16:42:53;93739.75;;;7.03
70415;BMP280;57837;52.064;113.478;2023-09-30T16:46:01;93727.63;;;7.03
70415;BMP280;57837;52.064;113.478;2023-09-30T16:49:04;93724.25;;;7.06
70415;BMP280;57837;52.064;113.478;2023-09-30T16:52:08;93721.88;;;7.12
70415;BMP280;57837;52.064;113.478;2023-09-30T16:55:12;93721.78;;;7.15
70415;BMP280;57837;52.064;113.478;2023-09-30T16:58:15;93722.91;;;7.14
70415;BMP280;57837;52.064;113.478;2023-09-30T17:01:18;93726.63;;;7.13
70415;BMP280;57837;52.064;113.478;2023-09-30T17:04:24;93728.88;;;7.11
70415;BMP280;57837;52.064;113.478;2023-09-30T17:07:27;93736.66;;;6.95
70415;BMP280;57837;52.064;113.478;2023-09-30T17:10:32;93737.31;;;6.83
70415;BMP280;57837;52.064;113.478;2023-09-30T17:13:36;93741.03;;;6.82
70415;BMP280;57837;52.064;113.478;2023-09-30T17:16:39;93734.81;;;6.79
70415;BMP280;57837;52.064;113.478;2023-09-30T17:19:43;93735.47;;;6.67
70415;BMP280;57837;52.064;113.478;2023-09-30T17:22:47;93741.16;;;6.59
70415;BMP280;57837;52.064;113.478;2023-09-30T17:25:51;93737.97;;;6.55
70415;BMP280;57837;52.064;113.478;2023-09-30T17:28:55;93733.38;;;6.62
70415;BMP280;57837;52.064;113.478;2023-09-30T17:31:59;93736.34;;;6.61
70415;BMP280;57837;52.064;113.478;2023-09-30T17:35:07;93732.53;;;6.53